Time;durP1;ratioP1;P1;durP2;ratioP2;P2;SDS_P1;SDS_P2;PMS_P1;PMS_P2;Temp;Humidity;BMP_temperature;BMP_pressure;BME280_temperature;BME280_humidity;BME280_pressure;Samples;Min_cycle;Max_cycle;Signal;HPM_P1;HPM_P2
2021/10/20 00:01:46;;;;;;;14.07;10.93;;;15.30;99.90;;;;;;5018663;28;20045;-66
2021/10/20 00:04:12;;;;;;;12.48;11.05;;;15.30;99.90;;;;;;5015004;28;20140;-66
2021/10/20 00:06:38;;;;;;;14.60;10.30;;;15.30;99.90;;;;;;5020027;28;20032;-66
2021/10/20 00:09:05;;;;;;;12.07;10.20;;;15.20;99.90;;;;;;5017577;28;20044;-66
2021/10/20 00:11:30;;;;;;;11.40;10.05;;;15.20;99.90;;;;;;5023052;28;20658;-66
2021/10/20 00:13:56;;;;;;;13.07;10.63;;;15.20;99.90;;;;;;5019138;28;20029;-66
2021/10/20 00:16:22;;;;;;;11.43;9.80;;;15.20;99.90;;;;;;5019468;28;20104;-66
2021/10/20 00:18:49;;;;;;;10.48;9.38;;;15.20;99.90;;;;;;5016205;28;20041;-66
2021/10/20 00:21:21;;;;;;;11.00;9.90;;;15.10;99.90;;;;;;5020162;28;20046;-66
2021/10/20 00:23:47;;;;;;;12.73;9.82;;;15.20;99.90;;;;;;5021133;28;20125;-66
2021/10/20 00:26:13;;;;;;;13.90;10.48;;;15.10;99.90;;;;;;5022798;28;20120;-66
2021/10/20 00:28:39;;;;;;;10.80;9.07;;;15.20;99.90;;;;;;5017450;28;20061;-66
2021/10/20 00:31:05;;;;;;;12.15;9.23;;;15.10;99.90;;;;;;5016831;28;20481;-66
2021/10/20 00:33:30;;;;;;;9.73;8.73;;;15.10;99.90;;;;;;5025197;28;20049;-66
2021/10/20 00:35:56;;;;;;;11.35;8.98;;;15.10;99.90;;;;;;5017001;28;20390;-66
2021/10/20 00:38:22;;;;;;;12.48;9.70;;;15.10;99.90;;;;;;5016433;28;20056;-66
2021/10/20 00:40:50;;;;;;;9.40;8.43;;;15.00;99.90;;;;;;5015101;28;20042;-66
2021/10/20 00:43:18;;;;;;;9.40;8.48;;;15.10;99.90;;;;;;5018870;28;20071;-66
2021/10/20 00:45:44;;;;;;;10.38;8.65;;;15.00;99.90;;;;;;5017246;28;20033;-66
2021/10/20 00:48:10;;;;;;;10.52;8.65;;;15.00;99.90;;;;;;5020424;28;20041;-66
2021/10/20 00:50:35;;;;;;;11.70;9.25;;;15.00;99.90;;;;;;5018347;28;20495;-66
2021/10/20 00:53:01;;;;;;;9.25;8.27;;;15.00;99.90;;;;;;5017304;28;20037;-66
2021/10/20 00:55:27;;;;;;;9.98;8.82;;;15.00;99.90;;;;;;5009289;28;20053;-67
2021/10/20 00:57:53;;;;;;;9.52;8.25;;;15.00;99.90;;;;;;5026507;28;20056;-66
2021/10/20 01:00:19;;;;;;;9.52;8.52;;;15.00;99.90;;;;;;5016206;28;20033;-66
2021/10/20 01:02:45;;;;;;;9.55;8.30;;;15.00;99.90;;;;;;5022840;28;20045;-66
2021/10/20 01:05:11;;;;;;;10.45;8.27;;;14.90;99.90;;;;;;5011772;28;20060;-66
2021/10/20 01:07:37;;;;;;;11.77;8.88;;;14.90;99.90;;;;;;5013563;28;20490;-66
2021/10/20 01:10:05;;;;;;;9.68;8.65;;;14.90;99.90;;;;;;5015372;28;20045;-66
2021/10/20 01:12:32;;;;;;;11.88;8.52;;;14.80;99.90;;;;;;5022282;28;20049;-66
2021/10/20 01:14:58;;;;;;;10.57;8.60;;;14.80;99.90;;;;;;5034869;28;20414;-66
2021/10/20 01:17:24;;;;;;;9.13;8.32;;;14.80;99.90;;;;;;5019119;28;20037;-66
2021/10/20 01:19:50;;;;;;;10.00;8.20;;;14.70;99.90;;;;;;5021827;28;20042;-66
2021/10/20 01:22:17;;;;;;;9.57;8.57;;;14.70;99.90;;;;;;5013019;28;20033;-66
2021/10/20 01:24:42;;;;;;;10.13;8.20;;;14.70;99.90;;;;;;5015273;28;20550;-66
2021/10/20 01:27:08;;;;;;;9.32;8.43;;;14.70;99.90;;;;;;5012810;28;20033;-66
2021/10/20 01:29:34;;;;;;;9.00;8.10;;;14.70;99.90;;;;;;5017595;28;20050;-66
2021/10/20 01:32:05;;;;;;;9.30;8.40;;;14.70;99.90;;;;;;5012937;28;20155;-66
2021/10/20 01:34:31;;;;;;;8.82;7.82;;;14.60;99.90;;;;;;5026348;28;20034;-66
2021/10/20 01:37:01;;;;;;;9.57;7.57;;;14.60;99.90;;;;;;5010976;28;20046;-66
2021/10/20 01:39:27;;;;;;;9.75;7.53;;;14.50;99.90;;;;;;5019896;28;20042;-66
2021/10/20 01:41:53;;;;;;;10.45;7.90;;;14.50;99.90;;;;;;5019321;28;20045;-66
2021/10/20 01:44:19;;;;;;;13.68;8.00;;;14.50;99.90;;;;;;5016154;28;20434;-66
2021/10/20 01:46:44;;;;;;;8.93;7.72;;;14.40;99.90;;;;;;4999368;28;20091;-66
2021/10/20 01:49:10;;;;;;;12.48;8.00;;;14.40;99.90;;;;;;5019607;28;20033;-66
2021/10/20 01:51:36;;;;;;;9.48;7.72;;;14.40;99.90;;;;;;5014260;28;20041;-66
2021/10/20 01:54:02;;;;;;;10.80;7.55;;;14.30;99.90;;;;;;5024426;28;20052;-66
2021/10/20 01:56:28;;;;;;;8.88;7.00;;;14.30;99.90;;;;;;5019111;28;20058;-66
2021/10/20 01:58:53;;;;;;;8.48;7.40;;;14.30;99.90;;;;;;5015363;28;20453;-66
2021/10/20 02:01:19;;;;;;;10.18;8.00;;;14.30;99.90;;;;;;5014691;28;20045;-66
2021/10/20 02:03:45;;;;;;;9.85;7.75;;;14.30;99.90;;;;;;5017947;28;20228;-66
2021/10/20 02:06:14;;;;;;;10.15;7.97;;;14.20;99.90;;;;;;5016471;28;20045;-66
2021/10/20 02:08:41;;;;;;;8.13;7.30;;;14.20;99.90;;;;;;5009736;28;20377;-66
2021/10/20 02:11:08;;;;;;;7.97;7.18;;;14.10;99.90;;;;;;5015119;28;20042;-66
2021/10/20 02:13:34;;;;;;;12.60;7.68;;;14.10;99.90;;;;;;5013996;28;20046;-66
2021/10/20 02:16:00;;;;;;;10.00;7.55;;;14.10;99.90;;;;;;5023108;28;20482;-66
2021/10/20 02:18:26;;;;;;;10.63;7.90;;;14.10;99.90;;;;;;5012464;28;20064;-66
2021/10/20 02:20:52;;;;;;;8.20;7.40;;;14.10;99.90;;;;;;5017480;28;20042;-66
2021/10/20 02:23:18;;;;;;;8.80;7.55;;;14.00;99.90;;;;;;5011403;28;20164;-66
2021/10/20 02:25:44;;;;;;;8.48;7.57;;;14.00;99.90;;;;;;5024784;28;20056;-66
2021/10/20 02:28:10;;;;;;;9.18;7.80;;;14.00;99.90;;;;;;5009048;28;20416;-66
2021/10/20 02:30:36;;;;;;;11.32;8.20;;;14.00;99.90;;;;;;5023671;28;20029;-66
2021/10/20 02:33:03;;;;;;;8.40;7.50;;;14.00;99.90;;;;;;5019593;28;20037;-66
2021/10/20 02:35:28;;;;;;;9.82;7.78;;;14.00;99.90;;;;;;5012088;28;20421;-66
2021/10/20 02:37:54;;;;;;;11.57;8.25;;;13.90;99.90;;;;;;5016683;28;20046;-66
2021/10/20 02:40:20;;;;;;;9.40;7.35;;;14.00;99.90;;;;;;5013350;28;20413;-66
2021/10/20 02:42:46;;;;;;;10.02;8.07;;;13.90;99.90;;;;;;5016153;28;20045;-66
2021/10/20 02:45:15;;;;;;;9.63;7.05;;;13.90;99.90;;;;;;5007874;28;20153;-66
2021/10/20 02:47:42;;;;;;;9.27;7.75;;;13.90;99.90;;;;;;5017795;28;20144;-66
2021/10/20 02:50:09;;;;;;;10.18;7.80;;;13.90;99.90;;;;;;5012136;28;20030;-66
2021/10/20 02:52:35;;;;;;;12.57;8.70;;;13.90;99.90;;;;;;5017144;28;20054;-66
2021/10/20 02:55:01;;;;;;;9.27;8.25;;;13.80;99.90;;;;;;5009264;28;20409;-66
2021/10/20 02:57:27;;;;;;;12.55;8.48;;;13.80;99.90;;;;;;5015700;28;20046;-66
2021/10/20 02:59:53;;;;;;;8.50;7.68;;;13.80;99.90;;;;;;5010361;28;20048;-66
2021/10/20 03:02:19;;;;;;;9.20;8.20;;;13.80;99.90;;;;;;5012298;28;20128;-66
2021/10/20 03:04:46;;;;;;;8.90;7.97;;;13.80;99.90;;;;;;5018094;28;20060;-66
2021/10/20 03:07:12;;;;;;;9.13;8.23;;;13.80;99.90;;;;;;5013022;28;20046;-66
2021/10/20 03:09:38;;;;;;;11.48;8.80;;;13.80;99.90;;;;;;5016439;28;20034;-66
2021/10/20 03:12:03;;;;;;;10.60;8.18;;;13.80;99.90;;;;;;5023656;28;20052;-66
2021/10/20 03:14:29;;;;;;;9.48;7.90;;;13.80;99.90;;;;;;5022909;28;20033;-66
2021/10/20 03:16:55;;;;;;;8.93;7.78;;;13.80;99.90;;;;;;5015554;28;20092;-66
2021/10/20 03:19:20;;;;;;;12.20;8.45;;;13.80;99.90;;;;;;5023787;28;20048;-66
2021/10/20 03:21:46;;;;;;;9.90;8.90;;;13.80;99.90;;;;;;5015833;28;20136;-66
2021/10/20 03:24:12;;;;;;;12.18;8.65;;;13.80;99.90;;;;;;5025073;28;20206;-66
2021/10/20 03:26:37;;;;;;;12.65;8.77;;;13.80;99.90;;;;;;5019681;28;20041;-66
2021/10/20 03:29:03;;;;;;;10.55;9.25;;;13.80;99.90;;;;;;5017825;28;20045;-66
2021/10/20 03:31:29;;;;;;;11.90;8.48;;;13.80;99.90;;;;;;5013899;28;20068;-66
2021/10/20 03:33:55;;;;;;;10.70;8.57;;;13.80;99.90;;;;;;5020432;28;20042;-66
2021/10/20 03:36:21;;;;;;;11.32;8.95;;;13.80;99.90;;;;;;5012660;28;20516;-66
2021/10/20 03:38:47;;;;;;;12.40;9.68;;;13.80;99.90;;;;;;5023649;28;20080;-66
2021/10/20 03:41:12;;;;;;;11.98;9.07;;;13.80;99.90;;;;;;5014361;28;20509;-66
2021/10/20 03:43:39;;;;;;;11.07;9.13;;;13.80;99.90;;;;;;5019845;28;20364;-66
2021/10/20 03:46:05;;;;;;;10.20;9.20;;;13.90;99.90;;;;;;5010156;28;20041;-66
2021/10/20 03:48:31;;;;;;;11.82;10.63;;;13.80;99.90;;;;;;5018280;28;20123;-66
2021/10/20 03:50:57;;;;;;;11.98;10.18;;;13.80;99.90;;;;;;5020812;28;20045;-66
2021/10/20 03:53:23;;;;;;;13.50;10.15;;;13.80;99.90;;;;;;5019624;28;20492;-66
2021/10/20 03:55:49;;;;;;;14.43;11.27;;;13.80;99.90;;;;;;5028384;28;20398;-66
2021/10/20 03:58:15;;;;;;;13.63;11.20;;;13.80;99.90;;;;;;5013293;28;20152;-66
2021/10/20 04:00:40;;;;;;;13.95;10.77;;;13.80;99.90;;;;;;5025549;28;20567;-66
2021/10/20 04:03:06;;;;;;;13.18;11.35;;;13.80;99.90;;;;;;5016261;28;20044;-66
2021/10/20 04:05:32;;;;;;;13.38;11.60;;;13.80;99.90;;;;;;5029027;28;20041;-66
2021/10/20 04:07:57;;;;;;;13.13;11.55;;;13.80;99.90;;;;;;5020141;28;20060;-66
2021/10/20 04:10:28;;;;;;;14.82;11.85;;;13.80;99.90;;;;;;5024548;28;20513;-66
2021/10/20 04:12:54;;;;;;;13.70;11.57;;;13.90;99.90;;;;;;5011892;28;20478;-66
2021/10/20 04:15:24;;;;;;;14.35;11.88;;;13.90;99.90;;;;;;5016121;28;20494;-66
2021/10/20 04:17:50;;;;;;;15.18;11.07;;;14.00;99.90;;;;;;5016555;28;20171;-66
2021/10/20 04:20:17;;;;;;;13.70;11.75;;;14.00;99.90;;;;;;5019996;28;20052;-66
2021/10/20 04:22:44;;;;;;;14.43;12.13;;;14.10;99.90;;;;;;5011246;28;20438;-67
2021/10/20 04:25:10;;;;;;;15.35;11.90;;;14.20;99.90;;;;;;5020176;28;20057;-66
2021/10/20 04:27:36;;;;;;;14.52;11.43;;;14.20;99.90;;;;;;5019649;28;20122;-67
2021/10/20 04:30:04;;;;;;;13.70;11.48;;;14.30;99.90;;;;;;5023440;28;20048;-66
2021/10/20 04:32:30;;;;;;;16.08;12.27;;;14.30;99.90;;;;;;5026945;28;20080;-66
2021/10/20 04:34:56;;;;;;;14.50;11.50;;;14.40;99.90;;;;;;5014070;28;20127;-66
2021/10/20 04:37:25;;;;;;;12.20;10.90;;;14.40;99.90;;;;;;5020132;28;20033;-66
2021/10/20 04:39:57;;;;;;;14.05;10.82;;;14.50;99.90;;;;;;5019729;28;20045;-67
2021/10/20 04:42:23;;;;;;;15.57;11.20;;;14.60;99.90;;;;;;5027849;28;20175;-66
2021/10/20 04:44:49;;;;;;;13.98;11.55;;;14.60;99.90;;;;;;5018631;28;20026;-67
2021/10/20 04:47:16;;;;;;;11.82;10.57;;;14.60;99.90;;;;;;5024837;28;20045;-67
2021/10/20 04:49:43;;;;;;;14.35;11.43;;;14.60;99.90;;;;;;5021080;28;20085;-67
2021/10/20 04:52:09;;;;;;;13.48;11.73;;;14.70;99.90;;;;;;5026835;28;20443;-67
2021/10/20 04:54:35;;;;;;;15.88;11.05;;;14.70;99.90;;;;;;5015751;28;20048;-67
2021/10/20 04:57:00;;;;;;;12.68;11.38;;;14.70;99.90;;;;;;5015769;28;20507;-66
2021/10/20 04:59:31;;;;;;;13.93;11.75;;;14.70;99.90;;;;;;5015596;28;20045;-66
2021/10/20 05:02:00;;;;;;;13.23;11.57;;;14.70;99.90;;;;;;5014939;28;20045;-67
2021/10/20 05:04:26;;;;;;;11.90;10.57;;;14.80;99.90;;;;;;5015557;28;20038;-67
2021/10/20 05:06:51;;;;;;;12.77;11.07;;;14.70;99.90;;;;;;5018036;28;20038;-67
2021/10/20 05:09:17;;;;;;;12.73;11.43;;;14.80;99.90;;;;;;5009981;28;20049;-67
2021/10/20 05:11:43;;;;;;;14.07;11.45;;;14.80;99.90;;;;;;5016773;28;20041;-67
2021/10/20 05:14:09;;;;;;;13.68;12.07;;;14.80;99.90;;;;;;5016758;28;20033;-66
2021/10/20 05:16:34;;;;;;;15.65;12.07;;;14.80;99.90;;;;;;5015270;28;20405;-66
2021/10/20 05:19:00;;;;;;;15.10;12.15;;;14.80;99.90;;;;;;5015218;28;20058;-66
2021/10/20 05:21:26;;;;;;;14.48;12.80;;;14.80;99.90;;;;;;5014207;28;20045;-66
2021/10/20 05:23:51;;;;;;;15.52;12.45;;;14.80;99.90;;;;;;5013921;28;20129;-66
2021/10/20 05:26:18;;;;;;;16.67;12.88;;;14.80;99.90;;;;;;5019238;28;20065;-67
2021/10/20 05:28:44;;;;;;;14.90;12.85;;;14.80;99.90;;;;;;5015799;28;20037;-66
2021/10/20 05:31:11;;;;;;;15.35;12.75;;;14.80;99.90;;;;;;5026441;28;20054;-66
2021/10/20 05:33:37;;;;;;;15.73;13.05;;;14.80;99.90;;;;;;5014984;28;20060;-66
2021/10/20 05:36:03;;;;;;;14.70;13.18;;;14.80;99.90;;;;;;5015428;28;20477;-67
2021/10/20 05:38:29;;;;;;;13.93;12.52;;;14.80;99.90;;;;;;5018410;28;20077;-67
2021/10/20 05:40:54;;;;;;;14.98;12.80;;;14.90;99.90;;;;;;5011506;28;20069;-67
2021/10/20 05:43:20;;;;;;;16.50;14.07;;;14.90;99.90;;;;;;5014080;28;20108;-67
2021/10/20 05:45:47;;;;;;;13.65;12.23;;;14.90;99.90;;;;;;5018920;28;20050;-67
2021/10/20 05:48:14;;;;;;;15.48;11.95;;;15.00;99.90;;;;;;5016690;28;20379;-66
2021/10/20 05:50:40;;;;;;;14.77;13.05;;;15.00;99.90;;;;;;5017704;28;20044;-66
2021/10/20 05:53:06;;;;;;;13.70;12.15;;;15.00;99.90;;;;;;5010132;28;20053;-67
2021/10/20 05:55:32;;;;;;;15.80;12.05;;;15.20;99.90;;;;;;5017938;28;20034;-66
2021/10/20 05:57:57;;;;;;;13.48;12.13;;;15.20;99.90;;;;;;5012145;28;20045;-66
2021/10/20 06:00:23;;;;;;;15.15;13.55;;;15.30;99.90;;;;;;5014929;28;20049;-66
2021/10/20 06:02:49;;;;;;;15.88;11.85;;;15.30;99.90;;;;;;5013821;28;20065;-66
2021/10/20 06:05:15;;;;;;;13.30;11.93;;;15.40;99.90;;;;;;5013105;28;20539;-66
2021/10/20 06:07:45;;;;;;;14.15;12.73;;;15.40;99.90;;;;;;5010557;28;20083;-66
2021/10/20 06:10:12;;;;;;;13.25;11.32;;;15.50;99.90;;;;;;5017171;28;20053;-66
2021/10/20 06:12:39;;;;;;;13.52;12.13;;;15.50;99.90;;;;;;5015201;28;20040;-66
2021/10/20 06:15:06;;;;;;;13.88;11.90;;;15.60;99.90;;;;;;5016962;28;20405;-66
2021/10/20 06:17:33;;;;;;;12.60;11.23;;;15.70;99.90;;;;;;5008403;28;20049;-66
2021/10/20 06:19:59;;;;;;;15.20;11.93;;;15.70;99.90;;;;;;5015969;28;20104;-66
2021/10/20 06:22:25;;;;;;;21.52;13.55;;;15.80;99.90;;;;;;5016371;28;20064;-66
2021/10/20 06:24:51;;;;;;;14.48;12.60;;;15.90;99.90;;;;;;5017445;28;20548;-66
2021/10/20 06:27:16;;;;;;;23.90;13.48;;;15.90;99.90;;;;;;5008634;28;20461;-66
2021/10/20 06:29:42;;;;;;;16.40;12.50;;;15.90;99.90;;;;;;5016167;28;20045;-66
2021/10/20 06:32:08;;;;;;;18.27;12.50;;;15.90;99.90;;;;;;5015351;28;20041;-66
2021/10/20 06:34:33;;;;;;;13.80;11.82;;;15.90;99.90;;;;;;5012151;28;20037;-66
2021/10/20 06:36:59;;;;;;;12.55;11.25;;;15.90;99.90;;;;;;5014686;28;20033;-67
2021/10/20 06:39:25;;;;;;;15.00;11.75;;;15.90;99.90;;;;;;5011485;28;20041;-67
2021/10/20 06:41:51;;;;;;;14.55;11.57;;;16.00;99.90;;;;;;5016609;28;20052;-67
2021/10/20 06:44:17;;;;;;;12.75;11.13;;;16.00;99.90;;;;;;5018197;28;20042;-67
2021/10/20 06:46:43;;;;;;;13.05;10.93;;;15.90;99.90;;;;;;5013007;28;20130;-67
2021/10/20 06:49:09;;;;;;;14.90;11.57;;;16.00;99.90;;;;;;5012174;28;20092;-67
2021/10/20 06:51:34;;;;;;;16.67;11.15;;;15.90;99.90;;;;;;5016259;28;20044;-67
2021/10/20 06:54:00;;;;;;;13.63;10.35;;;15.90;99.90;;;;;;5022133;28;20034;-66
2021/10/20 06:56:26;;;;;;;12.27;10.90;;;15.90;99.90;;;;;;5027164;28;20052;-66
2021/10/20 06:58:52;;;;;;;12.60;11.13;;;15.90;99.90;;;;;;5022078;28;20111;-67
2021/10/20 07:01:18;;;;;;;14.63;10.55;;;16.00;99.90;;;;;;5031793;28;20040;-67
2021/10/20 07:03:44;;;;;;;12.60;10.35;;;16.00;99.90;;;;;;5016280;28;20045;-67
2021/10/20 07:06:10;;;;;;;13.35;11.05;;;15.90;99.90;;;;;;5021878;28;20054;-67
2021/10/20 07:08:36;;;;;;;13.65;11.15;;;16.00;99.90;;;;;;5025135;28;20052;-66
2021/10/20 07:11:02;;;;;;;12.45;10.48;;;15.90;99.90;;;;;;5020590;28;20025;-66
2021/10/20 07:13:28;;;;;;;11.52;10.05;;;15.90;99.90;;;;;;5030079;28;20104;-66
2021/10/20 07:15:54;;;;;;;13.95;10.68;;;16.00;99.90;;;;;;5019543;28;20129;-66
2021/10/20 07:18:21;;;;;;;11.73;10.07;;;16.00;99.90;;;;;;5040366;28;20128;-66
2021/10/20 07:20:47;;;;;;;13.20;10.23;;;15.90;99.90;;;;;;5015331;28;20460;-66
2021/10/20 07:23:12;;;;;;;12.63;9.93;;;15.90;99.90;;;;;;5020428;28;20561;-66
2021/10/20 07:25:38;;;;;;;12.30;9.77;;;16.00;99.90;;;;;;5020081;28;20046;-66
2021/10/20 07:28:04;;;;;;;12.50;9.25;;;16.00;99.90;;;;;;5029254;28;20393;-66
2021/10/20 07:30:30;;;;;;;10.85;9.10;;;16.00;99.90;;;;;;5015628;28;20572;-66
2021/10/20 07:32:56;;;;;;;14.50;9.25;;;16.00;99.90;;;;;;5023586;28;20391;-66
2021/10/20 07:35:22;;;;;;;11.25;9.40;;;16.00;99.90;;;;;;5017999;28;20088;-66
2021/10/20 07:37:48;;;;;;;12.02;9.13;;;16.10;99.90;;;;;;5026214;28;20492;-66
2021/10/20 07:40:15;;;;;;;10.13;8.98;;;16.10;99.90;;;;;;5017295;28;20041;-66
2021/10/20 07:42:44;;;;;;;10.85;9.55;;;16.10;99.90;;;;;;5029141;28;20045;-66
2021/10/20 07:45:11;;;;;;;10.35;9.05;;;16.20;99.90;;;;;;5027793;28;20041;-66
2021/10/20 07:47:37;;;;;;;12.13;9.68;;;16.20;99.90;;;;;;5024184;28;20069;-66
2021/10/20 07:50:07;;;;;;;10.70;8.63;;;16.20;99.90;;;;;;5023312;28;20069;-66
2021/10/20 07:52:33;;;;;;;10.95;9.38;;;16.20;99.90;;;;;;5024075;28;20049;-66
2021/10/20 07:54:59;;;;;;;12.15;9.50;;;16.30;99.90;;;;;;5028167;28;20060;-66
2021/10/20 07:57:25;;;;;;;11.85;9.02;;;16.30;99.90;;;;;;5015719;28;20107;-66
2021/10/20 07:59:52;;;;;;;10.35;8.32;;;16.20;99.90;;;;;;5023097;28;20470;-66
2021/10/20 08:02:18;;;;;;;10.07;8.75;;;16.20;99.90;;;;;;5017866;28;20096;-66
2021/10/20 08:04:44;;;;;;;9.77;8.77;;;16.20;99.90;;;;;;5024437;28;20502;-66
2021/10/20 08:07:09;;;;;;;10.23;8.45;;;16.20;99.90;;;;;;5015183;28;20481;-66
2021/10/20 08:09:35;;;;;;;11.77;8.98;;;16.20;99.90;;;;;;5020182;28;20379;-66
2021/10/20 08:12:01;;;;;;;10.02;8.52;;;16.20;99.90;;;;;;5015029;28;20428;-66
2021/10/20 08:14:29;;;;;;;9.40;7.93;;;16.20;99.90;;;;;;5024994;28;20065;-66
2021/10/20 08:16:55;;;;;;;10.93;8.43;;;16.20;99.90;;;;;;5010184;28;20041;-66
2021/10/20 08:19:21;;;;;;;8.90;8.00;;;16.30;99.90;;;;;;5019563;28;20469;-66
2021/10/20 08:21:47;;;;;;;10.13;7.97;;;16.40;99.90;;;;;;5019949;28;20515;-66
2021/10/20 08:24:13;;;;;;;8.82;7.70;;;16.40;99.90;;;;;;5025666;28;20045;-66
2021/10/20 08:26:38;;;;;;;9.63;7.90;;;16.40;99.90;;;;;;5015725;28;20046;-66
2021/10/20 08:29:04;;;;;;;9.85;7.43;;;16.50;99.90;;;;;;5012393;28;20076;-66
2021/10/20 08:31:30;;;;;;;8.75;7.70;;;16.50;99.90;;;;;;5019444;28;20067;-66
2021/10/20 08:33:56;;;;;;;8.32;7.53;;;16.40;99.90;;;;;;5014955;28;20041;-66
2021/10/20 08:36:21;;;;;;;9.00;7.53;;;16.40;99.90;;;;;;5025364;28;20045;-66
2021/10/20 08:38:47;;;;;;;11.68;6.90;;;16.30;99.90;;;;;;5018099;28;20092;-66
2021/10/20 08:41:12;;;;;;;8.88;7.15;;;16.30;99.90;;;;;;5026122;28;20442;-66
2021/10/20 08:43:39;;;;;;;11.13;6.97;;;16.30;99.90;;;;;;5022766;28;20052;-66
2021/10/20 08:46:05;;;;;;;8.82;6.65;;;16.30;99.90;;;;;;5017524;28;20049;-66
2021/10/20 08:48:32;;;;;;;8.07;6.53;;;16.30;99.90;;;;;;5015749;28;20558;-66
2021/10/20 08:51:01;;;;;;;8.38;6.63;;;16.30;99.90;;;;;;5019010;28;20171;-66
2021/10/20 08:53:27;;;;;;;7.80;6.93;;;16.30;99.90;;;;;;5011904;28;20117;-65
2021/10/20 08:55:53;;;;;;;8.80;7.45;;;16.30;99.90;;;;;;5017064;28;20049;-65
2021/10/20 08:58:21;;;;;;;9.90;7.07;;;16.30;99.90;;;;;;5012840;28;20057;-65
2021/10/20 09:00:47;;;;;;;9.15;6.88;;;16.30;99.90;;;;;;5025146;28;20180;-65
2021/10/20 09:03:14;;;;;;;7.43;6.53;;;16.40;99.90;;;;;;5019096;28;20112;-67
2021/10/20 09:05:40;;;;;;;8.65;5.93;;;16.40;99.90;;;;;;5021491;28;20068;-67
2021/10/20 09:08:06;;;;;;;9.80;6.68;;;16.40;99.90;;;;;;5033894;28;20386;-67
2021/10/20 09:10:32;;;;;;;7.53;6.80;;;16.50;99.90;;;;;;5022162;28;20180;-67
2021/10/20 09:13:00;;;;;;;8.02;6.50;;;16.50;99.90;;;;;;5023888;28;20129;-67
2021/10/20 09:15:29;;;;;;;9.27;6.03;;;16.50;99.90;;;;;;5016003;28;20116;-66
2021/10/20 09:17:56;;;;;;;7.40;6.70;;;16.60;99.90;;;;;;5016158;28;20034;-66
2021/10/20 09:20:29;;;;;;;10.48;6.10;;;16.60;99.90;;;;;;5020651;28;20045;-66
2021/10/20 09:23:02;;;;;;;8.70;6.20;;;16.60;99.90;;;;;;5019001;28;20124;-66
2021/10/20 09:25:34;;;;;;;7.77;6.23;;;16.50;99.90;;;;;;5014003;28;20133;-67
2021/10/20 09:28:00;;;;;;;7.53;6.82;;;16.40;99.90;;;;;;5019824;28;20308;-67
2021/10/20 09:30:29;;;;;;;7.07;6.38;;;16.40;99.90;;;;;;5020844;28;20169;-67
2021/10/20 09:32:57;;;;;;;10.07;7.10;;;16.40;99.90;;;;;;5016981;28;20415;-67
2021/10/20 09:35:23;;;;;;;7.68;6.25;;;16.40;99.90;;;;;;5014342;28;20049;-66
2021/10/20 09:37:58;;;;;;;7.55;6.80;;;16.30;99.90;;;;;;5014718;28;20030;-66
2021/10/20 09:40:24;;;;;;;9.13;6.30;;;16.40;99.90;;;;;;5021767;28;20102;-66
2021/10/20 09:42:51;;;;;;;8.93;7.15;;;16.40;99.90;;;;;;5016139;28;20510;-66
2021/10/20 09:45:20;;;;;;;9.27;6.88;;;16.40;99.90;;;;;;5016936;28;20417;-66
2021/10/20 09:47:46;;;;;;;8.60;6.63;;;16.40;99.90;;;;;;5025002;28;20489;-66
2021/10/20 09:50:17;;;;;;;10.20;6.63;;;16.40;99.90;;;;;;5010606;28;20040;-66
2021/10/20 09:52:47;;;;;;;9.00;6.78;;;16.50;99.90;;;;;;5018526;28;20463;-67
2021/10/20 09:55:27;;;;;;;7.90;6.80;;;16.50;99.90;;;;;;5016620;28;20212;-67
2021/10/20 09:58:13;;;;;;;10.02;6.95;;;16.50;99.90;;;;;;5024914;28;20058;-67
2021/10/20 10:00:40;;;;;;;7.50;6.47;;;16.60;99.90;;;;;;5008811;28;20438;-67
2021/10/20 10:03:07;;;;;;;7.72;6.93;;;16.60;99.90;;;;;;5025143;28;20337;-67
2021/10/20 10:05:32;;;;;;;8.05;7.25;;;16.60;99.90;;;;;;5019904;28;20041;-67
2021/10/20 10:07:59;;;;;;;8.85;6.78;;;16.70;99.90;;;;;;5008969;28;20057;-67
2021/10/20 10:10:25;;;;;;;7.28;6.45;;;16.80;99.90;;;;;;5018465;28;20076;-67
2021/10/20 10:12:57;;;;;;;7.55;6.32;;;16.90;99.90;;;;;;5012051;28;20061;-67
2021/10/20 10:15:25;;;;;;;8.48;6.63;;;17.10;99.90;;;;;;5016477;28;20390;-67
2021/10/20 10:17:54;;;;;;;7.35;6.60;;;17.30;99.90;;;;;;5008565;28;20045;-66
2021/10/20 10:20:20;;;;;;;7.85;6.45;;;17.40;99.90;;;;;;5016022;28;20057;-67
2021/10/20 10:23:02;;;;;;;7.70;6.65;;;17.50;99.90;;;;;;5013011;28;20040;-66
2021/10/20 10:25:40;;;;;;;7.20;6.50;;;17.60;99.90;;;;;;5024078;28;20455;-67
2021/10/20 10:28:21;;;;;;;8.20;6.38;;;17.60;99.90;;;;;;5013178;28;20116;-67
2021/10/20 10:30:55;;;;;;;7.72;6.05;;;17.60;99.90;;;;;;5024967;28;20117;-67
2021/10/20 10:33:26;;;;;;;6.75;6.13;;;17.50;99.90;;;;;;5013214;28;20068;-66
2021/10/20 10:36:25;;;;;;;6.78;5.95;;;17.40;99.90;;;;;;5015849;28;20038;-66
2021/10/20 10:39:04;;;;;;;6.30;5.75;;;17.40;99.90;;;;;;5008704;28;20108;-66
2021/10/20 10:41:36;;;;;;;9.07;6.10;;;17.30;99.90;;;;;;5023151;28;20127;-66
2021/10/20 10:44:02;;;;;;;7.97;6.20;;;17.30;99.90;;;;;;5019527;28;20408;-66
2021/10/20 10:46:52;;;;;;;6.90;6.13;;;17.30;99.90;;;;;;5018916;28;20046;-66
2021/10/20 10:49:29;;;;;;;7.38;5.88;;;17.40;99.90;;;;;;5015629;28;20064;-67
2021/10/20 10:52:23;;;;;;;6.30;5.70;;;17.40;99.90;;;;;;5019282;28;20026;-66
2021/10/20 10:55:06;;;;;;;7.43;5.97;;;17.40;99.90;;;;;;5015737;28;20120;-66
2021/10/20 10:57:44;;;;;;;7.50;6.75;;;17.30;99.90;;;;;;5014763;28;20568;-66
2021/10/20 11:00:34;;;;;;;9.18;7.70;;;17.30;99.90;;;;;;5017321;28;20049;-66
2021/10/20 11:03:08;;;;;;;8.52;7.65;;;17.20;99.90;;;;;;5019409;28;20042;-67
2021/10/20 11:05:34;;;;;;;8.00;7.20;;;17.10;99.90;;;;;;5015736;28;20470;-67
2021/10/20 11:08:11;;;;;;;9.30;7.60;;;17.00;99.90;;;;;;5018195;28;20134;-67
2021/10/20 11:10:42;;;;;;;9.27;7.80;;;16.80;99.90;;;;;;5023248;28;20044;-67
2021/10/20 11:13:08;;;;;;;9.95;8.75;;;16.70;99.90;;;;;;5019445;28;20040;-66
2021/10/20 11:15:35;;;;;;;9.70;8.23;;;16.60;99.90;;;;;;5009388;28;20038;-66
2021/10/20 11:18:01;;;;;;;12.38;9.02;;;16.50;99.90;;;;;;5015829;28;20473;-66
2021/10/20 11:20:29;;;;;;;9.38;8.10;;;16.40;99.90;;;;;;5016840;28;20374;-66
2021/10/20 11:23:00;;;;;;;9.73;7.47;;;16.40;99.90;;;;;;5022403;28;20045;-66
2021/10/20 11:25:26;;;;;;;8.27;7.47;;;16.30;99.90;;;;;;5017536;28;20046;-66
2021/10/20 11:27:54;;;;;;;8.98;7.60;;;16.40;99.90;;;;;;5016764;28;20049;-66
2021/10/20 11:30:22;;;;;;;8.15;7.35;;;16.40;99.90;;;;;;5009052;28;20175;-66
2021/10/20 11:32:48;;;;;;;8.85;7.97;;;16.40;99.90;;;;;;5024198;28;20490;-66
2021/10/20 11:35:21;;;;;;;8.23;7.45;;;16.40;99.90;;;;;;5012984;28;20040;-66
2021/10/20 11:38:03;;;;;;;8.37;7.47;;;16.50;99.90;;;;;;5014577;28;20463;-66
2021/10/20 11:40:47;;;;;;;7.10;6.40;;;16.50;99.90;;;;;;5017290;28;20091;-66
2021/10/20 11:43:21;;;;;;;9.67;6.00;;;16.50;99.90;;;;;;5023544;28;20045;-66
2021/10/20 11:45:48;;;;;;;7.53;6.03;;;16.50;99.90;;;;;;5024100;28;20042;-66
2021/10/20 11:48:20;;;;;;;9.43;6.45;;;16.60;99.90;;;;;;5027763;28;20520;-66
2021/10/20 11:50:55;;;;;;;10.10;6.30;;;16.60;99.90;;;;;;5016333;28;20069;-66
2021/10/20 11:53:21;;;;;;;9.52;6.00;;;16.60;99.90;;;;;;5021870;28;20046;-66
2021/10/20 11:55:49;;;;;;;8.77;5.57;;;16.60;99.90;;;;;;5011602;28;20044;-66
2021/10/20 11:58:19;;;;;;;6.60;5.95;;;16.70;99.90;;;;;;5027074;28;20492;-66
2021/10/20 12:00:53;;;;;;;8.98;5.53;;;16.70;99.90;;;;;;5020220;28;20124;-65
2021/10/20 12:03:19;;;;;;;9.68;5.80;;;16.90;99.90;;;;;;5020068;28;20045;-65
2021/10/20 12:05:46;;;;;;;10.40;6.20;;;16.90;99.90;;;;;;5009233;28;20037;-65
2021/10/20 12:08:12;;;;;;;6.93;5.45;;;16.90;99.90;;;;;;5027747;28;20490;-65
2021/10/20 12:10:39;;;;;;;8.57;5.25;;;16.90;99.90;;;;;;5015134;28;20038;-66
2021/10/20 12:13:07;;;;;;;7.75;5.15;;;16.90;99.90;;;;;;5025834;28;20064;-66
2021/10/20 12:15:41;;;;;;;8.00;5.40;;;17.00;99.90;;;;;;5021714;28;20033;-66
2021/10/20 12:18:08;;;;;;;8.43;5.25;;;17.00;99.90;;;;;;5027299;28;20125;-66
2021/10/20 12:20:34;;;;;;;8.95;4.38;;;17.10;99.90;;;;;;5019344;28;20091;-66
2021/10/20 12:22:59;;;;;;;6.00;5.00;;;17.10;99.90;;;;;;5014153;28;20290;-66
2021/10/20 12:25:26;;;;;;;8.38;5.00;;;17.20;99.90;;;;;;5016212;28;20045;-66
2021/10/20 12:27:52;;;;;;;8.43;4.78;;;17.20;99.90;;;;;;5012472;28;20038;-65
2021/10/20 12:30:18;;;;;;;8.18;4.95;;;17.20;99.90;;;;;;5022034;28;20037;-66
2021/10/20 12:32:44;;;;;;;10.30;5.88;;;17.20;99.90;;;;;;5018901;28;20113;-65
2021/10/20 12:35:13;;;;;;;7.60;4.70;;;17.20;99.90;;;;;;5015523;28;20478;-66
2021/10/20 12:37:46;;;;;;;9.60;4.45;;;17.20;99.90;;;;;;5019290;28;20041;-66
2021/10/20 12:40:13;;;;;;;7.47;4.30;;;17.20;99.90;;;;;;5020971;28;20034;-65